createdAt,value
2023-07-22T00:00:55.965Z,4.70
2023-07-22T00:03:23.834Z,5.10
2023-07-22T00:06:08.953Z,5.50
2023-07-22T00:08:36.156Z,4.50
2023-07-22T00:11:03.674Z,4.40
2023-07-22T00:13:30.298Z,4.50
2023-07-22T00:15:57.158Z,4.30
2023-07-22T00:18:24.521Z,4.40
2023-07-22T00:20:51.706Z,5.10
2023-07-22T00:23:18.259Z,5.00
2023-07-22T00:25:44.880Z,4.70
2023-07-22T00:28:11.880Z,4.80
2023-07-22T00:30:39.466Z,4.80
2023-07-22T00:33:07.030Z,4.50
2023-07-22T00:35:34.488Z,4.90
2023-07-22T00:38:01.569Z,5.30
2023-07-22T00:40:30.927Z,5.00
2023-07-22T00:42:57.716Z,4.50
2023-07-22T00:45:24.471Z,4.40
2023-07-22T00:47:50.974Z,5.40
2023-07-22T00:50:17.684Z,5.30
2023-07-22T00:52:44.356Z,4.90
2023-07-22T00:55:11.130Z,5.00
2023-07-22T00:57:39.403Z,5.60
2023-07-22T01:00:06.885Z,5.10
2023-07-22T01:02:35.480Z,4.40
2023-07-22T01:05:02.397Z,4.90
2023-07-22T01:07:29.170Z,4.60
2023-07-22T01:09:58.870Z,5.00
2023-07-22T01:12:27.037Z,4.80
2023-07-22T01:14:53.943Z,5.50
2023-07-22T01:17:20.878Z,4.90
2023-07-22T01:19:48.100Z,5.80
2023-07-22T01:22:15.315Z,4.70
2023-07-22T01:24:42.216Z,4.80
2023-07-22T01:27:10.577Z,5.20
2023-07-22T01:29:37.662Z,5.10
2023-07-22T01:32:05.756Z,4.60
2023-07-22T01:34:33.365Z,4.80
2023-07-22T01:37:00.638Z,4.50
2023-07-22T01:39:28.140Z,4.50
2023-07-22T01:41:54.632Z,4.50
2023-07-22T01:44:21.506Z,4.80
2023-07-22T01:46:48.214Z,4.50
2023-07-22T01:49:15.077Z,4.10
2023-07-22T01:51:41.672Z,4.60
2023-07-22T01:54:09.730Z,5.00
2023-07-22T01:56:37.254Z,4.60
2023-07-22T01:59:03.842Z,4.60
2023-07-22T02:01:30.819Z,5.20
2023-07-22T02:03:57.528Z,5.30
2023-07-22T02:06:25.024Z,5.00
2023-07-22T02:08:52.404Z,5.10
2023-07-22T02:11:19.130Z,5.00
2023-07-22T02:13:45.874Z,5.20
2023-07-22T02:16:12.452Z,4.70
2023-07-22T02:18:39.941Z,4.40
2023-07-22T02:21:07.158Z,4.70
2023-07-22T02:23:34.552Z,5.00
2023-07-22T02:26:01.640Z,4.80
2023-07-22T02:28:28.890Z,5.00
2023-07-22T02:30:55.679Z,4.80
2023-07-22T02:33:22.318Z,4.90
2023-07-22T02:35:48.995Z,4.60
2023-07-22T02:38:15.528Z,5.10
2023-07-22T02:40:42.248Z,5.10
2023-07-22T02:43:10.949Z,5.50
2023-07-22T02:45:37.885Z,5.20
2023-07-22T02:48:05.501Z,5.00
2023-07-22T02:50:32.290Z,5.30
2023-07-22T02:52:59.308Z,5.20
2023-07-22T02:55:26.022Z,5.80
2023-07-22T02:57:52.716Z,5.00
2023-07-22T03:00:26.192Z,5.70
2023-07-22T03:02:54.137Z,5.80
2023-07-22T03:05:21.710Z,5.60
2023-07-22T03:07:49.481Z,4.90
2023-07-22T03:10:16.067Z,4.80
2023-07-22T03:12:44.289Z,4.80
2023-07-22T03:15:12.782Z,5.20
2023-07-22T03:17:42.598Z,5.60
2023-07-22T03:20:15.047Z,5.00
2023-07-22T03:22:42.307Z,5.10
2023-07-22T03:25:10.917Z,5.40
2023-07-22T03:27:38.669Z,5.30
2023-07-22T03:30:11.198Z,4.80
2023-07-22T03:32:38.845Z,5.40
2023-07-22T03:35:05.933Z,4.70
2023-07-22T03:37:32.518Z,5.00
2023-07-22T03:39:59.246Z,5.10
2023-07-22T03:42:26.111Z,4.90
2023-07-22T03:44:52.878Z,4.50
2023-07-22T03:47:20.033Z,5.40
2023-07-22T03:49:46.861Z,5.00
2023-07-22T03:52:14.930Z,5.60
2023-07-22T03:54:41.994Z,5.20
2023-07-22T03:57:09.082Z,5.80
2023-07-22T03:59:35.914Z,5.00
2023-07-22T04:02:03.357Z,5.40
2023-07-22T04:04:30.386Z,5.20
2023-07-22T04:06:57.491Z,5.10
2023-07-22T04:09:24.078Z,4.80
2023-07-22T04:11:50.779Z,5.20
2023-07-22T04:14:17.491Z,4.70
2023-07-22T04:16:45.568Z,4.80
2023-07-22T04:19:12.275Z,4.90
2023-07-22T04:21:39.513Z,5.10
2023-07-22T04:24:07.070Z,5.00
2023-07-22T04:26:34.657Z,5.00
2023-07-22T04:29:01.153Z,4.50
2023-07-22T04:31:28.500Z,5.50
2023-07-22T04:33:56.211Z,4.50
2023-07-22T04:36:23.055Z,4.40
2023-07-22T04:38:50.149Z,4.10
2023-07-22T04:41:16.803Z,4.70
2023-07-22T04:43:43.520Z,5.20
2023-07-22T04:46:10.262Z,5.60
2023-07-22T04:48:37.616Z,5.30
2023-07-22T04:51:04.115Z,5.70
2023-07-22T04:53:30.649Z,4.90
2023-07-22T04:55:58.129Z,5.00
2023-07-22T04:58:25.551Z,5.10
2023-07-22T05:00:52.302Z,4.90
2023-07-22T05:03:19.448Z,4.40
2023-07-22T05:05:47.032Z,4.80
2023-07-22T05:08:13.751Z,5.20
2023-07-22T05:10:40.313Z,4.90
2023-07-22T05:13:06.787Z,5.30
2023-07-22T05:15:33.673Z,4.70
2023-07-22T05:18:00.491Z,4.70
2023-07-22T05:20:27.263Z,4.30
2023-07-22T05:22:54.426Z,3.70
2023-07-22T05:25:21.130Z,4.90
2023-07-22T05:27:47.855Z,4.20
2023-07-22T05:32:44.969Z,3.80
2023-07-22T05:35:12.163Z,3.50
2023-07-22T05:37:38.950Z,3.60
2023-07-22T05:40:07.841Z,3.50
2023-07-22T05:42:34.791Z,3.70
2023-07-22T05:45:02.996Z,3.90
2023-07-22T05:47:30.121Z,3.80
2023-07-22T05:49:57.198Z,4.40
2023-07-22T05:52:23.982Z,4.00
2023-07-22T05:54:50.608Z,3.60
2023-07-22T05:57:17.474Z,3.30
2023-07-22T05:59:44.073Z,3.10
2023-07-22T06:02:13.592Z,3.90
2023-07-22T06:04:41.817Z,3.60
2023-07-22T06:07:08.700Z,3.70
2023-07-22T06:09:35.888Z,3.50
2023-07-22T06:12:02.996Z,3.40
2023-07-22T06:14:30.029Z,3.30
2023-07-22T06:16:56.967Z,3.60
2023-07-22T06:19:24.162Z,3.40
2023-07-22T06:21:51.616Z,3.60
2023-07-22T06:24:19.855Z,3.40
2023-07-22T06:26:47.051Z,3.50
2023-07-22T06:29:17.784Z,4.20
2023-07-22T06:31:44.541Z,3.60
2023-07-22T06:34:11.144Z,4.10
2023-07-22T06:36:37.980Z,3.70
2023-07-22T06:39:04.628Z,4.20
2023-07-22T06:41:31.432Z,4.00
2023-07-22T06:43:57.977Z,4.60
2023-07-22T06:46:24.765Z,4.10
2023-07-22T06:48:52.402Z,5.00
2023-07-22T06:51:19.252Z,4.10
2023-07-22T06:53:46.644Z,4.80
2023-07-22T06:56:16.088Z,4.80
2023-07-22T06:58:44.184Z,4.90
2023-07-22T07:01:12.755Z,5.20
2023-07-22T07:03:41.604Z,4.70
2023-07-22T07:06:08.343Z,5.10
2023-07-22T07:08:34.958Z,4.90
2023-07-22T07:11:02.329Z,4.80
2023-07-22T07:13:31.859Z,4.80
2023-07-22T07:16:23.476Z,4.70
2023-07-22T07:18:51.581Z,5.10
2023-07-22T07:21:22.089Z,4.50
2023-07-22T07:23:51.656Z,5.00
2023-07-22T07:26:19.388Z,4.60
2023-07-22T07:28:47.193Z,4.90
2023-07-22T07:31:13.981Z,4.70
2023-07-22T07:33:41.106Z,4.40
2023-07-22T07:36:07.910Z,5.00
2023-07-22T07:38:35.456Z,4.50
2023-07-22T07:41:03.860Z,6.00
2023-07-22T07:43:30.950Z,6.50
2023-07-22T07:46:18.047Z,7.50
2023-07-22T07:48:46.234Z,7.40
2023-07-22T07:51:14.631Z,5.20
2023-07-22T07:53:42.545Z,5.60
2023-07-22T07:56:09.250Z,4.40
2023-07-22T07:58:36.357Z,4.90
2023-07-22T08:01:03.640Z,4.90
2023-07-22T08:03:30.820Z,4.60
2023-07-22T08:05:58.301Z,3.80
2023-07-22T08:08:25.117Z,4.00
2023-07-22T08:11:01.364Z,4.10
2023-07-22T08:13:30.326Z,4.20
2023-07-22T08:15:58.982Z,4.70
2023-07-22T08:18:26.167Z,5.30
2023-07-22T08:20:54.193Z,4.90
2023-07-22T08:23:21.813Z,4.40
2023-07-22T08:25:49.462Z,4.70
2023-07-22T08:28:16.442Z,4.50
2023-07-22T08:30:43.445Z,4.70
2023-07-22T08:33:10.216Z,4.70
2023-07-22T08:35:38.177Z,4.90
2023-07-22T08:38:05.170Z,4.90
2023-07-22T08:40:36.139Z,4.60
2023-07-22T08:43:03.353Z,4.90
2023-07-22T08:45:38.008Z,4.30
2023-07-22T08:48:08.521Z,4.00
2023-07-22T08:50:57.151Z,4.40
2023-07-22T08:53:26.991Z,4.20
2023-07-22T08:55:57.568Z,4.00
2023-07-22T08:58:25.583Z,4.20
2023-07-22T09:00:52.371Z,4.30
2023-07-22T09:03:19.540Z,4.60
2023-07-22T09:05:47.483Z,4.00
2023-07-22T09:08:15.260Z,3.90
2023-07-22T09:10:42.087Z,4.20
2023-07-22T09:13:08.776Z,4.20
2023-07-22T09:15:36.882Z,4.30
2023-07-22T09:18:04.886Z,3.90
2023-07-22T09:20:32.352Z,3.80
2023-07-22T09:23:11.818Z,3.90
2023-07-22T09:25:41.397Z,3.80
2023-07-22T09:28:08.167Z,5.20
2023-07-22T09:30:36.664Z,4.40
2023-07-22T09:33:04.108Z,3.50
2023-07-22T09:35:42.861Z,3.50
2023-07-22T09:38:09.348Z,3.90
2023-07-22T09:40:36.126Z,3.70
2023-07-22T09:43:08.785Z,4.00
2023-07-22T09:45:35.520Z,3.70
2023-07-22T09:48:02.434Z,3.70
2023-07-22T09:50:33.487Z,4.60
2023-07-22T09:53:04.806Z,3.50
2023-07-22T09:55:38.010Z,3.90
2023-07-22T09:58:11.299Z,3.90
2023-07-22T10:00:37.987Z,4.10
2023-07-22T10:03:10.283Z,3.60
2023-07-22T10:05:38.857Z,3.60
2023-07-22T10:08:06.780Z,4.20
2023-07-22T10:10:36.172Z,3.60
2023-07-22T10:13:04.741Z,3.30
2023-07-22T10:15:34.893Z,3.20
2023-07-22T10:18:12.486Z,2.90
2023-07-22T10:20:39.686Z,3.40
2023-07-22T10:23:09.016Z,2.90
2023-07-22T10:25:55.921Z,3.30
2023-07-22T10:28:44.588Z,3.80
2023-07-22T10:31:15.382Z,3.50
2023-07-22T10:33:45.771Z,3.40
2023-07-22T10:36:16.425Z,3.20
2023-07-22T10:38:56.430Z,3.40
2023-07-22T10:41:28.101Z,3.40
2023-07-22T10:44:02.916Z,3.50
2023-07-22T10:46:43.985Z,3.70
2023-07-22T10:49:16.930Z,3.80
2023-07-22T10:51:52.254Z,3.30
2023-07-22T10:54:34.225Z,3.00
2023-07-22T10:57:06.921Z,3.10
2023-07-22T10:59:36.564Z,3.10
2023-07-22T11:02:07.761Z,3.30
2023-07-22T11:04:47.439Z,3.90
2023-07-22T11:07:43.093Z,3.30
2023-07-22T11:10:20.039Z,3.20
2023-07-22T11:12:46.802Z,3.80
2023-07-22T11:15:19.434Z,3.10
2023-07-22T11:17:48.890Z,3.80
2023-07-22T11:20:15.491Z,3.40
2023-07-22T11:22:42.176Z,3.50
2023-07-22T11:25:09.647Z,3.20
2023-07-22T11:27:36.676Z,3.30
2023-07-22T11:30:04.395Z,3.10
2023-07-22T11:32:32.612Z,3.00
2023-07-22T11:34:59.141Z,3.10
2023-07-22T11:37:28.519Z,3.10
2023-07-22T11:40:00.595Z,2.90
2023-07-22T11:42:27.186Z,3.00
2023-07-22T11:44:53.784Z,2.50
2023-07-22T11:47:20.337Z,3.10
2023-07-22T11:49:47.893Z,3.20
2023-07-22T11:52:18.188Z,3.10
2023-07-22T11:54:45.704Z,3.00
2023-07-22T11:57:13.966Z,3.10
2023-07-22T11:59:44.658Z,3.00
2023-07-22T12:02:18.516Z,3.10
2023-07-22T12:05:11.617Z,2.90
2023-07-22T12:07:38.679Z,3.20
2023-07-22T12:10:08.473Z,2.70
2023-07-22T12:12:38.336Z,3.10
2023-07-22T12:15:15.973Z,3.40
2023-07-22T12:18:00.319Z,3.00
2023-07-22T12:20:27.535Z,2.80
2023-07-22T12:22:55.097Z,3.60
2023-07-22T12:25:21.675Z,2.70
2023-07-22T12:27:48.215Z,2.70
2023-07-22T12:30:18.673Z,2.90
2023-07-22T12:32:47.175Z,3.30
2023-07-22T12:35:14.288Z,3.10
2023-07-22T12:37:40.821Z,3.30
2023-07-22T12:40:08.665Z,3.50
2023-07-22T12:42:36.856Z,3.10
2023-07-22T12:45:09.510Z,3.30
2023-07-22T12:47:37.363Z,3.00
2023-07-22T12:50:04.868Z,2.70
2023-07-22T12:52:31.529Z,3.10
2023-07-22T12:54:58.313Z,3.30
2023-07-22T12:57:25.114Z,3.30
2023-07-22T12:59:52.544Z,2.90
2023-07-22T13:02:19.318Z,3.50
2023-07-22T13:04:48.990Z,3.20
2023-07-22T13:07:17.899Z,3.30
2023-07-22T13:10:02.857Z,3.00
2023-07-22T13:12:39.447Z,3.10
2023-07-22T13:15:09.666Z,3.70
2023-07-22T13:17:36.947Z,3.20
2023-07-22T13:20:09.569Z,3.80
2023-07-22T13:22:39.573Z,3.80
2023-07-22T13:25:07.148Z,3.20
2023-07-22T13:27:34.521Z,3.50
2023-07-22T13:30:10.200Z,3.20
2023-07-22T13:32:40.845Z,3.80
2023-07-22T13:35:11.065Z,3.80
2023-07-22T13:37:40.689Z,3.10
2023-07-22T13:40:10.940Z,3.90
2023-07-22T13:42:43.560Z,3.80
2023-07-22T13:45:13.511Z,4.20
2023-07-22T13:47:40.253Z,5.00
2023-07-22T13:50:06.905Z,3.80
2023-07-22T13:52:33.616Z,3.50
2023-07-22T13:55:00.130Z,3.70
2023-07-22T13:57:26.852Z,3.90
2023-07-22T13:59:53.370Z,4.40
2023-07-22T14:02:20.232Z,4.30
2023-07-22T14:04:47.813Z,3.70
2023-07-22T14:07:14.754Z,4.10
2023-07-22T14:09:41.557Z,4.90
2023-07-22T14:12:08.670Z,4.40
2023-07-22T14:14:35.237Z,4.60
2023-07-22T14:17:03.550Z,4.00
2023-07-22T14:19:31.327Z,4.40
2023-07-22T14:21:57.941Z,4.20
2023-07-22T14:24:24.622Z,4.10
2023-07-22T14:26:51.300Z,4.40
2023-07-22T14:29:17.904Z,4.40
2023-07-22T14:31:44.726Z,4.30
2023-07-22T14:34:11.493Z,5.10
2023-07-22T14:36:38.095Z,4.80
2023-07-22T14:39:04.755Z,5.20
2023-07-22T14:41:31.301Z,5.20
2023-07-22T14:43:58.055Z,6.10
2023-07-22T14:46:24.761Z,5.00
2023-07-22T14:48:51.533Z,4.70
2023-07-22T14:51:18.089Z,4.40
2023-07-22T14:53:44.534Z,4.00
2023-07-22T14:56:11.463Z,4.80
2023-07-22T14:58:38.153Z,4.60
2023-07-22T15:01:04.854Z,4.70
2023-07-22T15:03:31.417Z,4.70
2023-07-22T15:05:58.120Z,4.80
2023-07-22T15:08:25.653Z,4.90
2023-07-22T15:10:52.203Z,4.50
2023-07-22T15:13:18.806Z,4.50
2023-07-22T15:15:46.197Z,5.00
2023-07-22T15:18:12.829Z,4.40
2023-07-22T15:20:39.402Z,4.50
2023-07-22T15:23:06.083Z,3.80
2023-07-22T15:25:33.629Z,3.90
2023-07-22T15:28:00.353Z,4.10
2023-07-22T15:30:27.135Z,4.50
2023-07-22T15:32:53.857Z,4.20
2023-07-22T15:35:22.754Z,4.80
2023-07-22T15:37:51.248Z,4.90
2023-07-22T15:40:19.133Z,5.30
2023-07-22T15:42:45.669Z,4.90
2023-07-22T15:45:12.187Z,5.70
2023-07-22T15:47:38.843Z,5.50
2023-07-22T15:50:05.903Z,5.40
2023-07-22T15:52:32.616Z,4.70
2023-07-22T15:54:59.231Z,5.30
2023-07-22T15:57:26.574Z,6.00
2023-07-22T15:59:53.262Z,5.20
2023-07-22T16:02:20.071Z,5.00
2023-07-22T16:04:46.623Z,5.40
2023-07-22T16:07:13.329Z,5.30
2023-07-22T16:09:40.064Z,5.40
2023-07-22T16:12:07.242Z,4.70
2023-07-22T16:14:34.226Z,5.40
2023-07-22T16:17:01.389Z,5.50
2023-07-22T16:19:28.007Z,5.70
2023-07-22T16:21:54.594Z,5.70
2023-07-22T16:24:21.415Z,5.50
2023-07-22T16:26:48.009Z,5.50
2023-07-22T16:29:16.751Z,6.50
2023-07-22T16:31:58.174Z,5.90
2023-07-22T16:34:25.042Z,5.50
2023-07-22T16:36:51.982Z,7.20
2023-07-22T16:39:18.827Z,7.00
2023-07-22T16:41:45.569Z,7.70
2023-07-22T16:44:12.665Z,8.20
2023-07-22T16:46:39.247Z,7.20
2023-07-22T16:49:07.507Z,7.70
2023-07-22T16:51:34.526Z,7.80
2023-07-22T16:54:01.428Z,5.90
2023-07-22T16:56:28.014Z,6.40
2023-07-22T16:58:54.804Z,6.60
2023-07-22T17:01:21.756Z,6.30
2023-07-22T17:03:48.549Z,5.90
2023-07-22T17:06:15.205Z,6.50
2023-07-22T17:08:41.733Z,6.10
2023-07-22T17:11:08.628Z,5.50
2023-07-22T17:13:35.394Z,6.10
2023-07-22T17:16:09.678Z,6.90
2023-07-22T17:18:43.232Z,7.20
2023-07-22T17:21:12.022Z,6.80
2023-07-22T17:23:48.768Z,6.80
2023-07-22T17:26:18.034Z,6.60
2023-07-22T17:28:44.696Z,6.20
2023-07-22T17:31:11.494Z,7.20
2023-07-22T17:33:40.072Z,6.40
2023-07-22T17:36:06.608Z,6.60
2023-07-22T17:38:34.291Z,6.20
2023-07-22T17:41:01.036Z,6.10
2023-07-22T17:43:32.543Z,7.00
2023-07-22T17:48:29.351Z,6.10
2023-07-22T17:50:58.062Z,6.60
2023-07-22T17:53:27.230Z,6.20
2023-07-22T17:55:54.746Z,7.20
2023-07-22T17:58:21.629Z,7.40
2023-07-22T18:00:52.526Z,7.10
2023-07-22T18:03:21.903Z,6.50
2023-07-22T18:05:48.558Z,5.60
2023-07-22T18:08:15.167Z,6.00
2023-07-22T18:10:46.048Z,5.80
2023-07-22T18:13:13.843Z,5.90
2023-07-22T18:15:45.244Z,5.60
2023-07-22T18:18:18.119Z,4.80
2023-07-22T18:20:44.717Z,4.10
2023-07-22T18:23:15.811Z,3.80
2023-07-22T18:25:42.366Z,3.60
2023-07-22T18:28:11.891Z,3.70
2023-07-22T18:30:42.371Z,3.20
2023-07-22T18:33:08.955Z,3.80
2023-07-22T18:35:35.710Z,3.60
2023-07-22T18:38:03.268Z,3.40
2023-07-22T18:40:33.010Z,3.60
2023-07-22T18:42:59.812Z,3.90
2023-07-22T18:45:30.772Z,3.80
2023-07-22T18:48:10.107Z,3.60
2023-07-22T18:50:38.362Z,3.60
2023-07-22T18:55:43.674Z,3.30
2023-07-22T18:58:10.371Z,3.10
2023-07-22T19:00:38.987Z,3.40
2023-07-22T19:03:07.320Z,3.60
2023-07-22T19:05:40.034Z,3.50
2023-07-22T19:08:06.814Z,3.40
2023-07-22T19:10:33.591Z,3.40
2023-07-22T19:13:09.133Z,3.70
2023-07-22T19:15:39.993Z,3.30
2023-07-22T19:18:08.048Z,3.20
2023-07-22T19:20:34.650Z,3.60
2023-07-22T19:23:03.336Z,3.50
2023-07-22T19:25:30.422Z,3.70
2023-07-22T19:27:57.404Z,3.90
2023-07-22T19:30:23.953Z,4.00
2023-07-22T19:32:53.639Z,4.40
2023-07-22T19:35:27.938Z,4.40
2023-07-22T19:38:15.711Z,4.30
2023-07-22T19:40:42.306Z,4.30
2023-07-22T19:43:08.820Z,4.10
2023-07-22T19:45:35.612Z,4.30
2023-07-22T19:48:02.210Z,4.20
2023-07-22T19:50:28.935Z,4.40
2023-07-22T19:52:55.652Z,4.50
2023-07-22T19:55:22.122Z,4.40
2023-07-22T19:57:48.809Z,4.20
2023-07-22T20:00:15.466Z,4.30
2023-07-22T20:02:42.596Z,4.40
2023-07-22T20:05:09.824Z,4.30
2023-07-22T20:07:36.343Z,4.30
2023-07-22T20:10:02.922Z,4.50
2023-07-22T20:12:29.691Z,4.30
2023-07-22T20:14:56.247Z,4.10
2023-07-22T20:17:26.447Z,4.80
2023-07-22T20:19:53.110Z,4.30
2023-07-22T20:22:19.783Z,4.40
2023-07-22T20:24:46.517Z,4.10
2023-07-22T20:27:13.226Z,4.20
2023-07-22T20:29:39.975Z,4.40
2023-07-22T20:32:15.597Z,3.90
2023-07-22T20:34:50.122Z,4.20
2023-07-22T20:37:16.799Z,3.80
2023-07-22T20:39:43.615Z,4.00
2023-07-22T20:42:10.159Z,3.80
2023-07-22T20:44:36.704Z,4.50
2023-07-22T20:47:05.869Z,4.20
2023-07-22T20:49:32.995Z,4.00
2023-07-22T20:52:00.002Z,4.20
2023-07-22T20:54:26.664Z,4.20
2023-07-22T20:56:53.165Z,4.60
2023-07-22T20:59:19.734Z,4.50
2023-07-22T21:01:46.622Z,4.00
2023-07-22T21:04:13.233Z,4.00
2023-07-22T21:06:40.186Z,4.10
2023-07-22T21:09:07.003Z,4.10
2023-07-22T21:11:33.852Z,4.00
2023-07-22T21:14:00.350Z,3.90
2023-07-22T21:16:27.077Z,4.40
2023-07-22T21:18:53.767Z,3.90
2023-07-22T21:21:20.281Z,3.90
2023-07-22T21:23:47.314Z,3.90
2023-07-22T21:26:14.014Z,3.60
2023-07-22T21:28:40.829Z,3.80
2023-07-22T21:31:07.624Z,3.70
2023-07-22T21:33:34.201Z,4.10
2023-07-22T21:36:00.764Z,3.70
2023-07-22T21:38:53.131Z,3.90
2023-07-22T21:41:19.824Z,3.80
2023-07-22T21:43:48.130Z,3.80
2023-07-22T21:46:14.621Z,3.40
2023-07-22T21:48:41.186Z,3.80
2023-07-22T21:51:07.767Z,3.20
2023-07-22T21:53:35.288Z,3.30
2023-07-22T21:56:01.961Z,3.40
2023-07-22T21:58:28.700Z,3.20
2023-07-22T22:00:55.220Z,3.30
2023-07-22T22:03:21.800Z,2.90
2023-07-22T22:05:48.333Z,3.00
2023-07-22T22:08:15.057Z,3.00
2023-07-22T22:10:43.777Z,3.60
2023-07-22T22:13:10.985Z,3.10
2023-07-22T22:15:37.707Z,3.40
2023-07-22T22:18:04.449Z,2.90
2023-07-22T22:20:31.191Z,3.30
2023-07-22T22:22:57.992Z,3.10
2023-07-22T22:25:24.984Z,3.00
2023-07-22T22:27:51.715Z,3.40
2023-07-22T22:30:18.443Z,3.30
2023-07-22T22:32:45.030Z,3.20
2023-07-22T22:35:11.781Z,2.80
2023-07-22T22:37:38.336Z,2.90
2023-07-22T22:40:06.179Z,3.30
2023-07-22T22:42:32.850Z,2.80
2023-07-22T22:44:59.493Z,3.20
2023-07-22T22:47:26.081Z,3.60
2023-07-22T22:49:52.805Z,3.50
2023-07-22T22:52:19.428Z,2.90
2023-07-22T22:54:47.446Z,3.80
2023-07-22T22:57:14.126Z,3.40
2023-07-22T22:59:40.853Z,3.40
2023-07-22T23:02:07.441Z,3.30
2023-07-22T23:04:34.180Z,3.30
2023-07-22T23:07:00.855Z,3.40
2023-07-22T23:09:27.438Z,3.40
2023-07-22T23:11:54.003Z,3.40
2023-07-22T23:14:23.539Z,3.80
2023-07-22T23:16:50.204Z,3.70
2023-07-22T23:19:43.359Z,3.50
2023-07-22T23:22:09.872Z,3.50
2023-07-22T23:24:36.450Z,3.20
2023-07-22T23:27:03.383Z,3.40
2023-07-22T23:29:30.009Z,3.30
2023-07-22T23:31:56.746Z,3.20
2023-07-22T23:34:23.473Z,3.90
2023-07-22T23:36:50.115Z,3.70
2023-07-22T23:39:16.882Z,3.50
2023-07-22T23:41:43.554Z,3.70
2023-07-22T23:44:10.037Z,3.60
2023-07-22T23:46:36.578Z,3.70
2023-07-22T23:49:03.226Z,3.80
2023-07-22T23:51:30.588Z,3.50
2023-07-22T23:54:11.850Z,3.80
2023-07-22T23:56:38.453Z,3.80
2023-07-22T23:59:04.969Z,4.00
